Time;durP1;ratioP1;P1;durP2;ratioP2;P2;SDS_P1;SDS_P2;PMS_P1;PMS_P2;Temp;Humidity;BMP_temperature;BMP_pressure;BME280_temperature;BME280_humidity;BME280_pressure;Samples;Min_cycle;Max_cycle;Signal;HPM_P1;HPM_P2
2021/03/06 00:00:56;;;;;;;21.05;8.40;;;;;;;3.87;47.41;103378.25;4857125;28;118676;-71
2021/03/06 00:03:25;;;;;;;17.08;7.70;;;;;;;3.87;47.82;103377.38;4855200;28;124106;-71
2021/03/06 00:05:54;;;;;;;13.75;7.35;;;;;;;3.85;47.54;103376.47;4855305;28;124171;-71
2021/03/06 00:08:24;;;;;;;19.00;7.47;;;;;;;3.82;47.46;103379.00;4884350;28;118863;-71
2021/03/06 00:10:55;;;;;;;14.18;7.13;;;;;;;3.80;47.68;103384.19;4889889;28;118705;-72
2021/03/06 00:13:24;;;;;;;16.95;7.00;;;;;;;3.81;47.72;103387.72;4886460;28;123767;-71
2021/03/06 00:15:51;;;;;;;14.93;6.15;;;;;;;3.79;47.89;103378.94;4885849;28;122815;-71
2021/03/06 00:18:18;;;;;;;18.58;6.60;;;;;;;3.79;47.75;103384.19;4886529;28;118861;-71
2021/03/06 00:20:44;;;;;;;13.57;6.03;;;;;;;3.79;47.86;103378.94;4887152;28;118832;-71
2021/03/06 00:23:13;;;;;;;13.35;6.07;;;;;;;3.79;48.00;103386.81;4856265;28;124007;-71
2021/03/06 00:25:40;;;;;;;12.05;5.75;;;;;;;3.79;47.90;103378.94;4884844;28;124771;-71
2021/03/06 00:28:07;;;;;;;11.38;5.75;;;;;;;3.78;47.66;103378.03;4936505;23;120074;-67
2021/03/06 00:30:33;;;;;;;10.95;5.93;;;;;;;3.77;47.81;103383.25;4934792;28;122365;-67
2021/03/06 00:33:01;;;;;;;11.50;6.07;;;;;;;3.76;48.01;103378.88;4934217;28;123716;-67
2021/03/06 00:35:27;;;;;;;14.65;5.82;;;;;;;3.75;47.68;103382.31;4938899;28;124114;-68
2021/03/06 00:37:55;;;;;;;9.52;5.38;;;;;;;3.72;47.91;103387.50;4948947;28;118454;-69
2021/03/06 00:40:22;;;;;;;10.48;5.55;;;;;;;3.69;47.90;103391.81;4935428;28;118854;-68
2021/03/06 00:42:48;;;;;;;11.80;5.50;;;;;;;3.68;48.14;103387.41;4933116;28;123573;-68
2021/03/06 00:45:15;;;;;;;12.68;5.47;;;;;;;3.66;48.07;103383.00;4929889;28;123413;-69
2021/03/06 00:47:41;;;;;;;9.68;4.85;;;;;;;3.65;48.08;103382.09;4938111;28;119456;-68
2021/03/06 00:50:16;;;;;;;13.05;5.45;;;;;;;3.62;48.24;103382.03;4916031;28;118588;-68
2021/03/06 00:52:43;;;;;;;10.55;4.85;;;;;;;3.61;48.25;103380.25;4932079;28;123969;-69
2021/03/06 00:55:13;;;;;;;11.18;5.15;;;;;;;3.60;48.26;103381.13;4933498;28;123563;-68
2021/03/06 00:57:41;;;;;;;10.23;4.90;;;;;;;3.57;48.22;103383.66;4934132;28;119600;-67
2021/03/06 01:00:12;;;;;;;11.63;5.18;;;;;;;3.56;48.17;103380.97;4918490;28;119398;-67
2021/03/06 01:02:40;;;;;;;10.82;4.32;;;;;;;3.55;48.42;103377.47;4934016;28;122526;-67
2021/03/06 01:05:07;;;;;;;7.70;4.28;;;;;;;3.53;48.48;103376.56;4936093;28;123926;-67
2021/03/06 01:07:34;;;;;;;8.98;4.88;;;;;;;3.52;48.38;103372.16;4929800;28;118826;-68
2021/03/06 01:10:01;;;;;;;11.13;4.82;;;;;;;3.51;48.46;103375.63;4942848;28;117810;-67
2021/03/06 01:12:27;;;;;;;12.30;5.30;;;;;;;3.49;48.35;103369.47;4932138;28;123550;-67
2021/03/06 01:14:54;;;;;;;9.82;4.80;;;;;;;3.47;48.40;103371.19;4934143;28;123764;-67
2021/03/06 01:17:20;;;;;;;10.13;5.20;;;;;;;3.46;48.74;103369.38;4930753;28;120007;-67
2021/03/06 01:19:47;;;;;;;12.93;5.30;;;;;;;3.45;48.32;103378.09;4931803;28;120594;-67
2021/03/06 01:22:14;;;;;;;9.32;4.82;;;;;;;3.42;48.29;103367.53;4930939;28;124807;-67
2021/03/06 01:24:40;;;;;;;9.73;4.68;;;;;;;3.41;48.49;103365.75;4932896;28;123277;-67
2021/03/06 01:27:07;;;;;;;8.77;4.47;;;;;;;3.38;48.75;103376.19;4932446;28;119139;-67
2021/03/06 01:29:33;;;;;;;8.98;4.93;;;;;;;3.36;48.51;103372.63;4933697;28;117469;-67
2021/03/06 01:32:00;;;;;;;10.77;4.70;;;;;;;3.33;48.54;103367.31;4934294;28;124493;-68
2021/03/06 01:34:26;;;;;;;9.90;4.15;;;;;;;3.29;48.77;103367.22;4931551;28;123514;-67
2021/03/06 01:36:55;;;;;;;9.50;4.22;;;;;;;3.27;48.82;103366.28;4940775;28;119594;-67
2021/03/06 01:39:22;;;;;;;10.52;4.22;;;;;;;3.24;48.81;103366.22;4948253;28;118116;-67
2021/03/06 01:41:49;;;;;;;7.55;4.07;;;;;;;3.22;49.00;103365.31;4933231;28;123273;-67
2021/03/06 01:44:16;;;;;;;10.30;4.07;;;;;;;3.19;48.73;103362.59;4932684;28;123783;-67
2021/03/06 01:46:43;;;;;;;8.40;3.90;;;;;;;3.16;48.95;103359.88;4930920;28;119193;-67
2021/03/06 01:49:10;;;;;;;7.60;3.95;;;;;;;3.13;48.83;103354.59;4929821;28;118895;-67
2021/03/06 01:51:37;;;;;;;7.07;3.65;;;;;;;3.10;48.79;103360.59;4928423;28;122510;-67
2021/03/06 01:54:06;;;;;;;8.43;3.88;;;;;;;3.09;48.80;103363.22;4928899;28;124135;-67
2021/03/06 01:56:33;;;;;;;7.63;4.03;;;;;;;3.05;49.09;103361.34;4938514;28;119068;-67
2021/03/06 01:59:00;;;;;;;11.05;3.80;;;;;;;3.02;48.62;103361.25;4947644;28;118139;-67
2021/03/06 02:01:28;;;;;;;8.60;3.92;;;;;;;2.99;48.89;103355.94;4935478;28;122919;-68
2021/03/06 02:03:57;;;;;;;8.18;3.97;;;;;;;2.95;49.19;103364.56;4929394;28;124048;-67
2021/03/06 02:06:24;;;;;;;8.90;3.97;;;;;;;2.93;49.18;103370.63;4942257;28;121080;-67
2021/03/06 02:08:51;;;;;;;8.18;3.67;;;;;;;2.91;49.21;103369.69;4930260;28;119707;-68
2021/03/06 02:11:33;;;;;;;9.35;4.07;;;;;;;2.88;49.55;103364.41;4932031;28;123877;-67
2021/03/06 02:14:23;;;;;;;7.53;4.15;;;;;;;2.88;49.45;103363.50;4929831;28;124374;-66
2021/03/06 02:16:59;;;;;;;9.23;3.97;;;;;;;2.84;49.36;103362.50;4932247;28;119509;-68
2021/03/06 02:19:55;;;;;;;9.88;3.88;;;;;;;2.82;49.29;103369.44;4931192;28;118743;-68
2021/03/06 02:22:59;;;;;;;9.77;4.07;;;;;;;2.81;49.29;103362.44;4936232;28;124032;-67
2021/03/06 02:25:44;;;;;;;9.07;4.47;;;;;;;2.80;49.35;103360.66;4935114;28;123402;-67
2021/03/06 02:28:40;;;;;;;9.75;3.88;;;;;;;2.77;49.55;103354.44;4936566;28;118987;-67
2021/03/06 02:31:09;;;;;;;12.07;4.15;;;;;;;2.77;49.42;103360.59;4926599;28;117961;-68
2021/03/06 02:33:39;;;;;;;6.13;3.88;;;;;;;2.78;49.66;103364.97;4930077;28;124818;-67
2021/03/06 02:36:10;;;;;;;10.30;4.13;;;;;;;2.78;49.61;103364.97;4928112;28;124384;-67
2021/03/06 02:38:40;;;;;;;9.70;4.30;;;;;;;2.80;49.61;103365.91;4932691;28;119075;-67
2021/03/06 02:41:10;;;;;;;11.07;4.28;;;;;;;2.80;49.48;103359.78;4930202;28;119216;-67
2021/03/06 02:43:36;;;;;;;8.40;3.80;;;;;;;2.79;49.72;103358.91;4928487;28;123963;-67
2021/03/06 02:46:07;;;;;;;8.40;3.80;;;;;;;2.79;49.65;103353.66;4930188;28;123841;-67
2021/03/06 02:48:35;;;;;;;8.15;4.28;;;;;;;2.80;49.72;103355.44;4930180;28;119181;-68
2021/03/06 02:51:03;;;;;;;10.18;4.00;;;;;;;2.80;49.87;103363.28;4928982;28;118028;-67
2021/03/06 02:53:30;;;;;;;7.30;3.75;;;;;;;2.79;49.46;103353.66;4929534;28;123517;-67
2021/03/06 02:55:57;;;;;;;7.60;4.10;;;;;;;2.79;49.88;103358.91;4932571;28;124313;-67
2021/03/06 02:58:31;;;;;;;11.52;4.05;;;;;;;2.78;49.84;103351.00;4930780;28;120677;-68
2021/03/06 03:01:03;;;;;;;8.75;4.22;;;;;;;2.77;49.77;103347.50;4933629;28;119678;-68
2021/03/06 03:03:54;;;;;;;11.55;4.53;;;;;;;2.76;49.94;103352.69;4931573;28;123121;-67
2021/03/06 03:06:43;;;;;;;10.80;4.35;;;;;;;2.74;49.93;103355.25;4937115;28;123925;-67
2021/03/06 03:09:29;;;;;;;9.93;4.38;;;;;;;2.73;49.95;103353.47;4939898;28;119991;-67
2021/03/06 03:12:02;;;;;;;11.45;4.18;;;;;;;2.72;49.88;103346.50;4930233;28;118895;-68
2021/03/06 03:14:33;;;;;;;9.70;3.80;;;;;;;2.71;49.90;103355.16;4915420;28;123420;-67
2021/03/06 03:17:05;;;;;;;10.02;4.72;;;;;;;2.71;49.87;103355.16;4933313;28;123647;-67
2021/03/06 03:19:36;;;;;;;6.10;4.05;;;;;;;2.70;49.78;103359.53;4934973;28;119177;-67
2021/03/06 03:22:06;;;;;;;8.43;4.18;;;;;;;2.69;50.05;103352.53;4932683;28;118942;-67
2021/03/06 03:24:37;;;;;;;11.85;4.28;;;;;;;2.68;50.02;103349.88;4933411;28;123802;-67
2021/03/06 03:27:11;;;;;;;8.15;4.10;;;;;;;2.66;49.90;103346.31;4937725;28;124878;-67
2021/03/06 03:29:39;;;;;;;9.20;4.00;;;;;;;2.64;49.92;103348.00;4935568;28;118269;-66
2021/03/06 03:32:11;;;;;;;8.63;4.00;;;;;;;2.62;50.02;103345.34;4931311;28;119864;-66
2021/03/06 03:34:40;;;;;;;10.85;4.40;;;;;;;2.62;50.12;103339.22;4937115;28;123001;-66
2021/03/06 03:37:10;;;;;;;8.13;3.75;;;;;;;2.63;50.06;103346.22;4931961;28;123169;-66
2021/03/06 03:39:37;;;;;;;7.00;3.88;;;;;;;2.62;50.30;103339.22;4935327;28;119227;-66
2021/03/06 03:42:06;;;;;;;12.60;4.05;;;;;;;2.60;50.09;103340.91;4943888;28;119261;-66
2021/03/06 03:44:34;;;;;;;10.10;4.45;;;;;;;2.58;50.38;103337.34;4935048;28;123194;-68
2021/03/06 03:47:03;;;;;;;8.30;4.18;;;;;;;2.57;50.27;103330.38;4935318;28;124509;-67
2021/03/06 03:49:30;;;;;;;11.30;4.10;;;;;;;2.57;50.25;103340.81;4949205;28;120731;-67
2021/03/06 03:51:59;;;;;;;12.07;4.07;;;;;;;2.55;50.32;103342.50;4949355;28;118811;-67
2021/03/06 03:54:25;;;;;;;10.25;4.50;;;;;;;2.52;50.36;103338.97;4938082;28;125308;-67
2021/03/06 03:56:52;;;;;;;10.85;4.13;;;;;;;2.51;50.39;103342.41;4946018;28;125573;-67
2021/03/06 03:59:19;;;;;;;8.73;4.20;;;;;;;2.50;50.38;103340.63;4932228;28;119291;-67
2021/03/06 04:01:46;;;;;;;9.25;4.30;;;;;;;2.50;50.34;103340.63;4936662;28;119315;-67
2021/03/06 04:04:25;;;;;;;13.07;4.53;;;;;;;2.49;50.51;103346.72;4935139;28;123984;-68
2021/03/06 04:06:52;;;;;;;5.85;3.58;;;;;;;2.48;50.48;103342.31;4951017;28;123068;-67
2021/03/06 04:09:19;;;;;;;9.38;3.90;;;;;;;2.48;50.38;103337.09;4933497;28;120377;-67
2021/03/06 04:11:46;;;;;;;10.02;4.47;;;;;;;2.47;50.58;103343.19;4945622;28;118679;-67
2021/03/06 04:14:12;;;;;;;7.55;4.10;;;;;;;2.46;50.45;103343.13;4931652;28;124831;-67
2021/03/06 04:16:39;;;;;;;8.30;4.32;;;;;;;2.46;50.62;103344.00;4933556;28;124198;-67
2021/03/06 04:19:06;;;;;;;8.20;3.80;;;;;;;2.46;50.50;103337.91;4932698;28;118352;-67
2021/03/06 04:21:33;;;;;;;10.45;4.10;;;;;;;2.45;50.61;103342.25;4948733;28;118862;-67
2021/03/06 04:23:59;;;;;;;7.78;4.25;;;;;;;2.43;50.63;103346.56;4931742;28;123938;-67
2021/03/06 04:26:45;;;;;;;13.02;3.65;;;;;;;2.41;50.65;103345.63;4929085;28;123970;-67
2021/03/06 04:29:11;;;;;;;10.93;4.00;;;;;;;2.40;50.50;103349.06;4947110;28;118176;-67
2021/03/06 04:31:38;;;;;;;8.57;3.92;;;;;;;2.39;50.79;103347.28;4932643;28;118951;-67
2021/03/06 04:34:04;;;;;;;12.35;4.57;;;;;;;2.38;50.52;103350.75;4938347;28;123924;-67
2021/03/06 04:36:31;;;;;;;12.18;4.35;;;;;;;2.37;50.60;103354.19;4935266;28;123715;-67
2021/03/06 04:38:58;;;;;;;9.30;4.28;;;;;;;2.36;50.76;103362.91;4932626;28;120171;-67
2021/03/06 04:41:24;;;;;;;12.57;4.03;;;;;;;2.34;50.69;103368.06;4934604;28;119700;-67
2021/03/06 04:43:51;;;;;;;6.93;3.80;;;;;;;2.33;50.52;103368.03;4934410;28;124052;-67
2021/03/06 04:46:17;;;;;;;8.68;4.45;;;;;;;2.31;50.92;103369.72;4932215;28;124521;-67
2021/03/06 04:48:44;;;;;;;7.50;4.10;;;;;;;2.30;50.89;103360.97;4936535;28;119322;-67
2021/03/06 04:51:11;;;;;;;9.38;3.65;;;;;;;2.28;50.86;103364.38;4932541;28;119905;-67
2021/03/06 04:53:37;;;;;;;7.18;3.67;;;;;;;2.28;50.86;103369.59;4932240;28;122942;-67
2021/03/06 04:56:04;;;;;;;11.85;4.15;;;;;;;2.26;51.02;103371.28;4931034;28;122706;-67
2021/03/06 04:58:31;;;;;;;8.70;4.15;;;;;;;2.26;50.83;103372.19;4931559;28;118537;-67
2021/03/06 05:00:57;;;;;;;10.10;3.97;;;;;;;2.25;50.83;103367.78;4939181;28;118926;-67
2021/03/06 05:03:24;;;;;;;9.80;4.40;;;;;;;2.24;51.00;103367.75;4933734;28;121965;-66
2021/03/06 05:05:51;;;;;;;9.48;4.05;;;;;;;2.24;51.09;103367.75;4934010;28;123270;-67
2021/03/06 05:08:17;;;;;;;9.35;4.35;;;;;;;2.23;50.97;103371.22;4933637;28;119634;-67
2021/03/06 05:10:44;;;;;;;8.85;4.00;;;;;;;2.21;51.09;103375.50;4933934;28;118300;-67
2021/03/06 05:13:10;;;;;;;11.20;4.93;;;;;;;2.20;51.26;103381.56;4932293;28;124184;-67
2021/03/06 05:15:37;;;;;;;10.23;3.95;;;;;;;2.17;50.79;103382.38;4931609;28;124174;-66
2021/03/06 05:18:03;;;;;;;6.93;3.92;;;;;;;2.14;50.99;103383.16;4933854;28;117418;-67
2021/03/06 05:20:30;;;;;;;11.15;4.32;;;;;;;2.14;51.10;103382.25;4934943;28;118875;-67
2021/03/06 05:22:57;;;;;;;7.47;3.92;;;;;;;2.11;50.96;103388.28;4934940;28;123966;-67
2021/03/06 05:25:23;;;;;;;9.82;4.07;;;;;;;2.09;51.02;103389.97;4933310;28;124597;-67
2021/03/06 05:27:53;;;;;;;7.00;4.00;;;;;;;2.07;51.24;103391.66;4920603;28;119557;-67
2021/03/06 05:30:21;;;;;;;10.38;4.40;;;;;;;2.06;51.14;103389.88;4930938;28;119860;-67
2021/03/06 05:32:48;;;;;;;10.07;4.30;;;;;;;2.04;51.01;103386.31;4915981;28;122917;-67
2021/03/06 05:35:15;;;;;;;9.73;4.00;;;;;;;2.03;51.13;103384.53;4947369;28;123933;-67
2021/03/06 05:37:42;;;;;;;9.68;4.28;;;;;;;2.02;51.26;103377.56;4939837;28;118741;-67
2021/03/06 05:40:09;;;;;;;7.80;4.10;;;;;;;2.01;51.27;103375.75;4934008;28;119358;-67
2021/03/06 05:42:36;;;;;;;9.52;4.60;;;;;;;2.00;51.39;103374.00;4935270;28;123007;-68
2021/03/06 05:45:10;;;;;;;11.40;4.40;;;;;;;1.99;51.11;103372.22;4935832;28;124990;-67
2021/03/06 05:47:37;;;;;;;9.50;4.43;;;;;;;1.99;51.07;103377.44;4930685;28;119636;-67
2021/03/06 05:50:07;;;;;;;9.00;4.03;;;;;;;1.97;51.31;103379.13;4916776;28;118232;-68
2021/03/06 05:52:39;;;;;;;6.85;3.63;;;;;;;1.95;51.39;103380.81;4929431;28;123423;-67
2021/03/06 05:55:10;;;;;;;8.82;4.18;;;;;;;1.94;51.15;103385.16;4929420;28;124015;-66
2021/03/06 05:57:56;;;;;;;10.63;4.20;;;;;;;1.94;51.30;103384.25;4927997;28;119146;-67
2021/03/06 06:00:24;;;;;;;7.97;4.38;;;;;;;1.94;51.55;103386.84;4929115;28;118985;-67
2021/03/06 06:02:55;;;;;;;11.35;4.55;;;;;;;1.93;51.68;103398.16;4933072;28;123658;-68
2021/03/06 06:05:23;;;;;;;9.07;4.15;;;;;;;1.92;51.55;103391.16;4937695;28;123663;-67
2021/03/06 06:07:55;;;;;;;9.57;4.30;;;;;;;1.92;51.49;103397.28;4930119;28;119693;-67
2021/03/06 06:10:23;;;;;;;10.63;4.70;;;;;;;1.91;51.43;103392.00;4930933;28;117474;-66
2021/03/06 06:12:50;;;;;;;12.90;4.45;;;;;;;1.90;51.70;103395.44;4930093;28;123903;-67
2021/03/06 06:15:21;;;;;;;7.10;4.22;;;;;;;1.90;51.42;103398.06;4930164;28;124084;-67
2021/03/06 06:17:47;;;;;;;9.63;4.03;;;;;;;1.88;51.72;103394.50;4935078;28;118864;-67
2021/03/06 06:20:16;;;;;;;12.20;4.35;;;;;;;1.89;51.56;103396.31;4934767;28;118739;-67
2021/03/06 06:22:43;;;;;;;11.77;4.22;;;;;;;1.88;51.40;103394.50;4933924;28;125059;-67
2021/03/06 06:25:10;;;;;;;8.70;3.97;;;;;;;1.86;51.51;103401.41;4932029;28;124082;-67
2021/03/06 06:27:36;;;;;;;10.60;4.13;;;;;;;1.86;51.48;103396.19;4932138;28;119297;-67
2021/03/06 06:30:11;;;;;;;13.40;4.82;;;;;;;1.85;51.68;103404.88;4955617;23;119086;-74
2021/03/06 06:32:43;;;;;;;8.73;4.78;;;;;;;1.86;51.77;103401.41;4914420;28;124076;-77
2021/03/06 06:35:15;;;;;;;10.85;4.28;;;;;;;1.86;51.71;103407.53;4941018;28;124756;-77
2021/03/06 06:37:57;;;;;;;9.90;4.72;;;;;;;1.85;51.93;103410.09;4954481;28;119279;-77
2021/03/06 06:40:27;;;;;;;10.98;4.45;;;;;;;1.86;51.77;103412.75;4957098;28;119266;-76
2021/03/06 06:42:55;;;;;;;11.25;4.55;;;;;;;1.88;51.97;103425.88;4968286;28;123636;-77
2021/03/06 06:45:22;;;;;;;10.50;4.72;;;;;;;1.89;52.07;103418.09;4969999;28;123002;-77
2021/03/06 06:47:52;;;;;;;10.40;4.70;;;;;;;1.92;52.12;103427.72;4957480;28;119277;-77
2021/03/06 06:50:31;;;;;;;11.55;5.20;;;;;;;1.95;51.97;103428.72;4941765;28;118949;-77
2021/03/06 06:52:57;;;;;;;11.00;5.13;;;;;;;2.06;52.33;103428.19;4938694;28;124055;-77
2021/03/06 06:55:39;;;;;;;9.65;4.75;;;;;;;2.18;52.60;103427.69;4971658;28;122739;-77
2021/03/06 06:58:06;;;;;;;10.60;4.65;;;;;;;2.39;53.22;103436.19;4937470;28;117455;-77
2021/03/06 07:00:35;;;;;;;11.35;4.45;;;;;;;2.57;53.48;103429.78;4955088;28;117506;-79
2021/03/06 07:03:05;;;;;;;10.10;4.93;;;;;;;2.76;53.23;103436.44;4971423;28;124701;-76
2021/03/06 07:05:33;;;;;;;11.35;4.85;;;;;;;2.90;53.10;103433.38;4971387;28;121915;-76
2021/03/06 07:08:06;;;;;;;9.30;4.50;;;;;;;3.03;53.07;103431.09;4937587;28;120132;-77
2021/03/06 07:10:38;;;;;;;8.00;4.35;;;;;;;3.15;52.83;103441.03;4935747;28;118992;-77
2021/03/06 07:13:09;;;;;;;11.98;5.43;;;;;;;3.26;52.58;103445.72;4948349;28;123137;-77
2021/03/06 07:15:37;;;;;;;12.07;4.95;;;;;;;3.35;52.56;103449.44;4934719;28;123545;-77
2021/03/06 07:18:06;;;;;;;9.68;4.90;;;;;;;3.44;52.54;103449.69;4953981;28;118110;-77
2021/03/06 07:20:40;;;;;;;11.95;5.20;;;;;;;3.51;52.36;103456.84;4939995;28;118743;-77
2021/03/06 07:23:14;;;;;;;11.38;5.70;;;;;;;3.57;52.14;103451.78;4937735;28;124375;-77
2021/03/06 07:25:41;;;;;;;12.35;5.03;;;;;;;3.64;52.50;103458.94;4937656;28;123676;-77
2021/03/06 07:28:08;;;;;;;9.75;5.43;;;;;;;3.69;52.17;103457.34;4968909;28;119218;-77
2021/03/06 07:30:35;;;;;;;13.38;5.78;;;;;;;3.75;52.13;103466.19;4933525;28;117732;-77
2021/03/06 07:33:06;;;;;;;11.98;5.93;;;;;;;3.79;52.59;103468.06;4950650;28;124018;-77
2021/03/06 07:35:39;;;;;;;11.05;5.40;;;;;;;3.83;52.31;103469.91;4957641;28;122842;-78
2021/03/06 07:38:08;;;;;;;13.85;5.60;;;;;;;3.88;52.31;103470.91;4956899;28;118146;-77
2021/03/06 07:40:39;;;;;;;12.95;5.28;;;;;;;3.93;52.49;103471.91;4937234;28;119260;-77
2021/03/06 07:43:30;;;;;;;11.20;5.75;;;;;;;4.00;52.60;103479.09;4936039;28;123097;-77
2021/03/06 07:45:58;;;;;;;15.77;5.68;;;;;;;4.06;52.48;103479.22;4939355;28;123833;-76
2021/03/06 07:48:40;;;;;;;12.85;5.80;;;;;;;4.12;53.04;103472.38;4977880;28;118654;-76
2021/03/06 07:51:06;;;;;;;;;;;;;;;4.16;52.42;103477.72;4940449;28;118855;-76
2021/03/06 07:53:35;;;;;;;14.15;5.50;;;;;;;4.22;52.56;103480.50;4940935;28;124615;-76
2021/03/06 07:56:06;;;;;;;13.45;5.18;;;;;;;4.26;52.84;103481.47;4941084;28;122749;-78
2021/03/06 07:58:49;;;;;;;10.45;5.63;;;;;;;4.30;52.84;103472.81;4942293;28;118902;-76
2021/03/06 08:01:27;;;;;;;12.57;5.75;;;;;;;4.36;52.82;103472.94;4945606;28;120333;-76
2021/03/06 08:03:54;;;;;;;11.52;5.40;;;;;;;4.42;52.79;103473.06;4947133;28;122640;-76
2021/03/06 08:06:27;;;;;;;13.13;5.43;;;;;;;4.47;52.82;103471.47;4976438;28;123688;-76
2021/03/06 08:08:58;;;;;;;15.13;6.00;;;;;;;4.53;52.78;103475.09;4944883;28;118876;-76
2021/03/06 08:11:34;;;;;;;12.52;6.18;;;;;;;4.58;53.06;103470.81;4944176;28;118262;-76
2021/03/06 08:14:05;;;;;;;21.17;6.55;;;;;;;4.63;53.25;103471.78;4945147;28;124010;-76
2021/03/06 08:16:33;;;;;;;12.55;5.88;;;;;;;4.70;53.18;103472.84;4944435;28;123933;-76
2021/03/06 08:19:10;;;;;;;12.57;5.85;;;;;;;4.73;53.25;103468.53;4944986;28;120021;-76
2021/03/06 08:21:41;;;;;;;15.48;5.60;;;;;;;4.76;53.16;103463.34;4942602;28;118913;-76
2021/03/06 08:24:23;;;;;;;13.98;6.18;;;;;;;4.80;53.47;103465.19;4940513;28;124529;-76
2021/03/06 08:27:02;;;;;;;13.77;5.90;;;;;;;4.84;53.25;103467.03;4965990;28;123712;-75
2021/03/06 08:29:54;;;;;;;15.60;5.85;;;;;;;4.87;53.62;103461.81;4978555;28;119192;-76
2021/03/06 08:32:23;;;;;;;14.30;5.57;;;;;;;4.90;53.68;103465.34;4946181;28;119498;-76
2021/03/06 08:34:58;;;;;;;13.32;5.55;;;;;;;4.94;53.68;103467.22;4952373;28;123502;-76
2021/03/06 08:37:27;;;;;;;10.85;5.13;;;;;;;4.99;53.88;103470.81;4978075;28;123321;-76
2021/03/06 08:39:58;;;;;;;11.85;4.97;;;;;;;5.06;54.10;103472.72;4947275;28;119484;-76
2021/03/06 08:42:42;;;;;;;12.38;4.80;;;;;;;5.13;53.99;103471.97;4945365;28;118267;-76
2021/03/06 08:45:27;;;;;;;14.85;4.97;;;;;;;5.23;54.24;103466.03;4942898;28;123979;-76
2021/03/06 08:48:01;;;;;;;12.05;4.40;;;;;;;5.33;54.28;103466.22;4947777;28;123916;-78
2021/03/06 08:50:30;;;;;;;12.98;4.60;;;;;;;5.45;54.43;103469.09;4944051;28;120552;-76
2021/03/06 08:53:01;;;;;;;10.35;4.43;;;;;;;5.56;54.32;103464.94;4963018;28;119553;-76
2021/03/06 08:55:38;;;;;;;13.23;4.35;;;;;;;5.69;54.61;103459.88;4948043;28;124520;-76
2021/03/06 08:58:05;;;;;;;11.77;4.78;;;;;;;5.80;54.46;103463.56;4960986;28;124150;-77
2021/03/06 09:00:35;;;;;;;11.93;4.00;;;;;;;5.90;54.70;103460.25;4956226;28;118298;-76
2021/03/06 09:03:17;;;;;;;12.23;4.25;;;;;;;6.01;54.72;103463.97;4942282;28;118872;-76
2021/03/06 09:05:47;;;;;;;7.82;3.63;;;;;;;6.15;54.67;103465.94;4922931;28;123102;-76
2021/03/06 09:08:17;;;;;;;10.57;3.78;;;;;;;6.26;54.34;103464.38;4939434;28;124177;-76
2021/03/06 09:10:44;;;;;;;13.05;3.65;;;;;;;6.37;54.04;103467.16;4933523;28;118884;-76
2021/03/06 09:13:18;;;;;;;10.65;3.78;;;;;;;6.48;54.20;103459.41;4962987;28;118394;-76
2021/03/06 09:16:00;;;;;;;10.73;3.38;;;;;;;6.61;54.00;103462.25;4945160;28;124474;-76
2021/03/06 09:18:32;;;;;;;9.88;3.10;;;;;;;6.74;53.75;103465.94;4982392;28;123110;-76
2021/03/06 09:21:00;;;;;;;11.95;3.58;;;;;;;6.87;53.35;103471.34;4934728;28;119602;-76
2021/03/06 09:23:35;;;;;;;12.48;3.50;;;;;;;6.97;53.47;103470.63;4945581;28;118293;-76
2021/03/06 09:26:13;;;;;;;;;;;;;;;7.08;53.35;103458.44;4980231;22;123904;-76
2021/03/06 09:28:41;;;;;;;12.13;2.50;;;;;;;7.20;52.60;103458.59;4946462;28;123129;-76
2021/03/06 09:31:16;;;;;;;8.68;2.55;;;;;;;7.29;52.68;103464.81;4948843;28;118587;-76
2021/03/06 09:33:44;;;;;;;12.32;2.83;;;;;;;7.36;52.02;103464.03;4947675;28;119272;-76
2021/03/06 09:36:13;;;;;;;7.88;2.30;;;;;;;7.45;51.75;103453.56;4940808;28;123577;-76
2021/03/06 09:38:47;;;;;;;9.20;2.25;;;;;;;7.54;51.85;103453.66;4944145;28;123891;-76
2021/03/06 09:41:16;;;;;;;10.32;2.40;;;;;;;7.63;50.92;103457.25;4941374;28;120231;-76
2021/03/06 09:43:47;;;;;;;13.77;2.80;;;;;;;7.70;51.31;103453.81;4941757;28;121239;-77
2021/03/06 09:46:26;;;;;;;6.22;1.65;;;;;;;7.79;50.42;103460.03;4935975;28;124212;-76
2021/03/06 09:48:59;;;;;;;11.63;1.80;;;;;;;7.89;50.08;103452.22;4936221;28;123712;-76
2021/03/06 09:51:42;;;;;;;6.07;1.77;;;;;;;7.97;50.38;103448.78;4934851;28;119801;-77
2021/03/06 09:54:10;;;;;;;9.02;2.00;;;;;;;8.08;49.92;103445.31;4937694;28;120589;-77
2021/03/06 09:56:46;;;;;;;8.63;1.90;;;;;;;8.17;49.78;103445.38;4945627;28;125122;-78
2021/03/06 09:59:13;;;;;;;7.38;1.80;;;;;;;8.28;49.88;103443.69;4941222;28;122946;-77
2021/03/06 10:01:40;;;;;;;5.15;1.90;;;;;;;8.36;49.42;103441.09;4939898;28;118602;-77
2021/03/06 10:04:09;;;;;;;8.07;1.73;;;;;;;8.44;49.37;103434.16;4946812;28;119213;-77
2021/03/06 10:06:38;;;;;;;5.45;1.60;;;;;;;8.53;49.29;103438.59;4945118;28;123533;-77
2021/03/06 10:09:08;;;;;;;6.40;1.20;;;;;;;8.62;48.70;103449.22;4943370;28;124427;-77
2021/03/06 10:11:47;;;;;;;5.50;1.23;;;;;;;8.71;48.20;103443.97;4952041;28;119180;-77
2021/03/06 10:14:25;;;;;;;4.90;1.17;;;;;;;8.81;48.20;103439.59;4951265;28;118603;-77
2021/03/06 10:16:54;;;;;;;5.00;1.25;;;;;;;8.91;47.36;103440.53;4948434;28;124030;-77
2021/03/06 10:19:23;;;;;;;5.97;1.23;;;;;;;8.98;46.42;103447.59;4946857;28;123393;-77
2021/03/06 10:22:01;;;;;;;4.78;1.35;;;;;;;9.05;47.22;103438.81;4949660;28;118967;-77
2021/03/06 10:24:29;;;;;;;7.50;1.20;;;;;;;9.18;47.10;103439.75;4940818;28;118987;-77
2021/03/06 10:26:58;;;;;;;6.20;1.33;;;;;;;9.32;47.09;103434.47;4931976;28;123075;-77
2021/03/06 10:29:26;;;;;;;7.13;1.58;;;;;;;9.44;46.44;103437.16;4966280;28;123280;-77
2021/03/06 10:32:01;;;;;;;6.05;1.60;;;;;;;9.54;46.50;103433.63;4950228;28;119266;-77
2021/03/06 10:34:48;;;;;;;7.30;1.60;;;;;;;9.67;45.39;103431.00;4922822;28;121319;-77
2021/03/06 10:37:18;;;;;;;5.15;1.20;;;;;;;9.74;45.09;103431.00;4958350;28;124372;-77
2021/03/06 10:39:53;;;;;;;7.60;1.55;;;;;;;9.82;45.26;103433.66;4964105;28;123939;-77
2021/03/06 10:42:20;;;;;;;8.40;1.40;;;;;;;9.91;44.65;103433.66;4952584;28;119456;-78
2021/03/06 10:44:47;;;;;;;7.45;1.50;;;;;;;9.98;44.26;103433.63;4953089;28;118404;-77
2021/03/06 10:47:15;;;;;;;3.15;1.17;;;;;;;10.03;44.01;103427.47;4953673;28;123827;-78
2021/03/06 10:49:46;;;;;;;7.88;1.40;;;;;;;10.10;44.01;103428.34;4953455;28;122943;-78
2021/03/06 10:52:26;;;;;;;4.95;1.25;;;;;;;10.17;43.62;103429.19;4933493;28;119277;-78
2021/03/06 10:54:55;;;;;;;7.47;1.40;;;;;;;10.20;43.37;103422.13;4949466;28;118458;-77
2021/03/06 10:57:24;;;;;;;7.10;1.65;;;;;;;10.21;43.07;103421.25;4944317;28;124079;-79
2021/03/06 10:59:51;;;;;;;7.18;1.45;;;;;;;10.20;43.08;103423.91;4949252;28;123918;-78
2021/03/06 11:02:26;;;;;;;10.65;1.50;;;;;;;10.16;43.16;103433.63;4945573;28;119570;-77
2021/03/06 11:04:54;;;;;;;4.68;1.30;;;;;;;10.12;42.91;103427.44;4930481;28;118288;-77
2021/03/06 11:07:28;;;;;;;5.38;1.30;;;;;;;10.05;42.35;103428.34;4945782;28;122361;-76
2021/03/06 11:09:59;;;;;;;6.70;1.25;;;;;;;9.91;42.26;103423.06;4951282;28;123694;-77
2021/03/06 11:12:30;;;;;;;4.75;1.27;;;;;;;9.79;41.92;103425.69;4956510;28;118605;-78
2021/03/06 11:15:18;;;;;;;8.07;1.15;;;;;;;9.64;41.88;103420.41;4961445;28;119802;-77
2021/03/06 11:17:56;;;;;;;6.85;1.45;;;;;;;9.52;42.66;103414.22;4964655;28;123109;-77
2021/03/06 11:20:25;;;;;;;6.40;1.40;;;;;;;9.44;42.67;103410.72;4958310;28;122289;-77
2021/03/06 11:22:53;;;;;;;6.45;1.30;;;;;;;9.37;42.91;103411.56;4957298;28;120176;-77
2021/03/06 11:25:21;;;;;;;4.97;1.25;;;;;;;9.36;42.60;103407.16;4941085;28;120336;-76
2021/03/06 11:27:54;;;;;;;7.35;1.00;;;;;;;9.37;43.21;103398.34;4944309;28;123983;-78
2021/03/06 11:30:26;;;;;;;4.13;1.45;;;;;;;9.41;43.19;103397.47;4965031;28;123151;-77
2021/03/06 11:32:54;;;;;;;6.70;1.60;;;;;;;9.46;42.71;103393.06;4957026;28;119628;-75
2021/03/06 11:35:22;;;;;;;6.15;1.50;;;;;;;9.50;42.55;103389.53;4967008;28;118835;-75
2021/03/06 11:37:50;;;;;;;3.20;1.02;;;;;;;9.57;42.80;103389.53;4967498;28;122377;-75